sensor_id;sensor_type;location;lat;lon;timestamp;P1;durP1;ratioP1;P2;durP2;ratioP2
5977;SDS011;3015;51.390;12.256;2023-02-20T00:00:54;13.63;;;12.23;;
5977;SDS011;3015;51.390;12.256;2023-02-20T00:03:20;15.83;;;13.17;;
5977;SDS011;3015;51.390;12.256;2023-02-20T00:05:45;14.27;;;12.87;;
5977;SDS011;3015;51.390;12.256;2023-02-20T00:08:11;12.60;;;11.30;;
5977;SDS011;3015;51.390;12.256;2023-02-20T00:10:36;14.40;;;12.17;;
5977;SDS011;3015;51.390;12.256;2023-02-20T00:13:02;12.10;;;10.87;;
5977;SDS011;3015;51.390;12.256;2023-02-20T00:15:28;11.83;;;10.73;;
5977;SDS011;3015;51.390;12.256;2023-02-20T00:17:53;12.87;;;11.60;;
5977;SDS011;3015;51.390;12.256;2023-02-20T00:20:20;11.67;;;10.53;;
5977;SDS011;3015;51.390;12.256;2023-02-20T00:22:48;12.23;;;11.02;;
5977;SDS011;3015;51.390;12.256;2023-02-20T00:25:17;11.55;;;9.98;;
5977;SDS011;3015;51.390;12.256;2023-02-20T00:27:44;12.60;;;11.32;;
5977;SDS011;3015;51.390;12.256;2023-02-20T00:30:12;13.13;;;11.25;;
5977;SDS011;3015;51.390;12.256;2023-02-20T00:32:47;11.55;;;10.45;;
5977;SDS011;3015;51.390;12.256;2023-02-20T00:35:14;10.82;;;9.82;;
5977;SDS011;3015;51.390;12.256;2023-02-20T00:37:40;11.60;;;10.40;;
5977;SDS011;3015;51.390;12.256;2023-02-20T00:40:06;12.00;;;10.90;;
5977;SDS011;3015;51.390;12.256;2023-02-20T00:42:33;12.68;;;11.52;;
5977;SDS011;3015;51.390;12.256;2023-02-20T00:44:59;13.47;;;12.10;;
5977;SDS011;3015;51.390;12.256;2023-02-20T00:47:24;12.00;;;10.90;;
5977;SDS011;3015;51.390;12.256;2023-02-20T00:49:50;12.00;;;10.80;;
5977;SDS011;3015;51.390;12.256;2023-02-20T00:52:16;13.30;;;12.13;;
5977;SDS011;3015;51.390;12.256;2023-02-20T00:54:41;12.10;;;10.90;;
5977;SDS011;3015;51.390;12.256;2023-02-20T00:57:07;12.73;;;11.57;;
5977;SDS011;3015;51.390;12.256;2023-02-20T00:59:32;12.17;;;11.07;;
5977;SDS011;3015;51.390;12.256;2023-02-20T01:01:58;16.00;;;12.07;;
5977;SDS011;3015;51.390;12.256;2023-02-20T01:04:23;13.33;;;12.03;;
5977;SDS011;3015;51.390;12.256;2023-02-20T01:06:49;12.90;;;11.17;;
5977;SDS011;3015;51.390;12.256;2023-02-20T01:09:15;12.80;;;11.60;;
5977;SDS011;3015;51.390;12.256;2023-02-20T01:11:41;12.23;;;11.03;;
5977;SDS011;3015;51.390;12.256;2023-02-20T01:14:07;12.57;;;11.40;;
5977;SDS011;3015;51.390;12.256;2023-02-20T01:16:33;12.63;;;11.37;;
5977;SDS011;3015;51.390;12.256;2023-02-20T01:18:59;11.57;;;10.57;;
5977;SDS011;3015;51.390;12.256;2023-02-20T01:21:25;11.53;;;10.10;;
5977;SDS011;3015;51.390;12.256;2023-02-20T01:23:50;10.10;;;9.13;;
5977;SDS011;3015;51.390;12.256;2023-02-20T01:26:16;10.23;;;9.30;;
5977;SDS011;3015;51.390;12.256;2023-02-20T01:28:42;10.63;;;9.30;;
5977;SDS011;3015;51.390;12.256;2023-02-20T01:31:09;9.57;;;8.65;;
5977;SDS011;3015;51.390;12.256;2023-02-20T01:33:35;10.20;;;9.20;;
5977;SDS011;3015;51.390;12.256;2023-02-20T01:36:05;8.85;;;8.05;;
5977;SDS011;3015;51.390;12.256;2023-02-20T01:38:31;8.17;;;7.47;;
5977;SDS011;3015;51.390;12.256;2023-02-20T01:40:56;10.83;;;8.73;;
5977;SDS011;3015;51.390;12.256;2023-02-20T01:43:22;8.70;;;7.80;;
5977;SDS011;3015;51.390;12.256;2023-02-20T01:45:48;8.83;;;8.03;;
5977;SDS011;3015;51.390;12.256;2023-02-20T01:48:21;7.47;;;6.67;;
5977;SDS011;3015;51.390;12.256;2023-02-20T01:50:49;8.60;;;7.63;;
5977;SDS011;3015;51.390;12.256;2023-02-20T01:53:20;7.13;;;6.53;;
5977;SDS011;3015;51.390;12.256;2023-02-20T01:58:16;8.20;;;7.23;;
5977;SDS011;3015;51.390;12.256;2023-02-20T02:00:49;7.13;;;6.53;;
5977;SDS011;3015;51.390;12.256;2023-02-20T02:03:17;8.10;;;7.40;;
5977;SDS011;3015;51.390;12.256;2023-02-20T02:05:47;8.82;;;7.32;;
5977;SDS011;3015;51.390;12.256;2023-02-20T02:08:17;6.80;;;6.20;;
5977;SDS011;3015;51.390;12.256;2023-02-20T02:13:20;7.82;;;7.13;;
5977;SDS011;3015;51.390;12.256;2023-02-20T02:15:49;7.50;;;6.80;;
5977;SDS011;3015;51.390;12.256;2023-02-20T02:18:27;6.50;;;5.90;;
5977;SDS011;3015;51.390;12.256;2023-02-20T02:26:36;8.30;;;6.80;;
5977;SDS011;3015;51.390;12.256;2023-02-20T02:37:40;8.13;;;7.43;;
5977;SDS011;3015;51.390;12.256;2023-02-20T02:40:56;6.25;;;5.70;;
5977;SDS011;3015;51.390;12.256;2023-02-20T02:43:51;6.85;;;6.25;;
5977;SDS011;3015;51.390;12.256;2023-02-20T02:48:55;6.30;;;5.65;;
5977;SDS011;3015;51.390;12.256;2023-02-20T02:51:28;5.68;;;5.18;;
5977;SDS011;3015;51.390;12.256;2023-02-20T02:56:37;7.70;;;5.90;;
5977;SDS011;3015;51.390;12.256;2023-02-20T02:59:04;6.35;;;5.85;;
5977;SDS011;3015;51.390;12.256;2023-02-20T03:01:33;6.40;;;5.03;;
5977;SDS011;3015;51.390;12.256;2023-02-20T03:04:03;6.30;;;5.43;;
5977;SDS011;3015;51.390;12.256;2023-02-20T03:06:33;7.78;;;5.80;;
5977;SDS011;3015;51.390;12.256;2023-02-20T03:11:39;6.95;;;5.30;;
5977;SDS011;3015;51.390;12.256;2023-02-20T03:14:14;6.22;;;5.63;;
5977;SDS011;3015;51.390;12.256;2023-02-20T03:19:42;6.07;;;5.20;;
5977;SDS011;3015;51.390;12.256;2023-02-20T03:22:14;6.05;;;5.50;;
5977;SDS011;3015;51.390;12.256;2023-02-20T03:24:41;6.15;;;5.43;;
5977;SDS011;3015;51.390;12.256;2023-02-20T03:27:22;9.90;;;6.40;;
5977;SDS011;3015;51.390;12.256;2023-02-20T03:29:51;5.97;;;5.47;;
5977;SDS011;3015;51.390;12.256;2023-02-20T03:32:21;6.07;;;5.47;;
5977;SDS011;3015;51.390;12.256;2023-02-20T03:35:09;7.10;;;6.38;;
5977;SDS011;3015;51.390;12.256;2023-02-20T03:37:55;8.02;;;7.00;;
5977;SDS011;3015;51.390;12.256;2023-02-20T03:40:43;7.03;;;5.88;;
5977;SDS011;3015;51.390;12.256;2023-02-20T03:43:27;8.50;;;6.45;;
5977;SDS011;3015;51.390;12.256;2023-02-20T03:45:58;9.68;;;6.85;;
5977;SDS011;3015;51.390;12.256;2023-02-20T03:51:10;9.77;;;7.13;;
5977;SDS011;3015;51.390;12.256;2023-02-20T03:53:37;11.38;;;8.60;;
5977;SDS011;3015;51.390;12.256;2023-02-20T03:56:06;11.40;;;7.70;;
5977;SDS011;3015;51.390;12.256;2023-02-20T03:58:36;9.68;;;7.78;;
5977;SDS011;3015;51.390;12.256;2023-02-20T04:01:05;10.65;;;8.63;;
5977;SDS011;3015;51.390;12.256;2023-02-20T04:03:35;10.68;;;7.80;;
5977;SDS011;3015;51.390;12.256;2023-02-20T04:06:03;9.65;;;8.15;;
5977;SDS011;3015;51.390;12.256;2023-02-20T04:11:22;9.95;;;7.95;;
5977;SDS011;3015;51.390;12.256;2023-02-20T04:13:52;13.20;;;8.45;;
5977;SDS011;3015;51.390;12.256;2023-02-20T04:16:20;10.68;;;8.52;;
5977;SDS011;3015;51.390;12.256;2023-02-20T04:18:47;10.80;;;8.20;;
5977;SDS011;3015;51.390;12.256;2023-02-20T04:21:18;11.00;;;7.78;;
5977;SDS011;3015;51.390;12.256;2023-02-20T04:23:49;11.38;;;8.35;;
5977;SDS011;3015;51.390;12.256;2023-02-20T04:26:23;10.18;;;8.07;;
5977;SDS011;3015;51.390;12.256;2023-02-20T04:28:49;8.90;;;7.47;;
5977;SDS011;3015;51.390;12.256;2023-02-20T04:31:15;12.20;;;8.70;;
5977;SDS011;3015;51.390;12.256;2023-02-20T04:33:42;8.55;;;7.13;;
5977;SDS011;3015;51.390;12.256;2023-02-20T04:36:08;12.70;;;9.43;;
5977;SDS011;3015;51.390;12.256;2023-02-20T04:38:34;9.95;;;7.82;;
5977;SDS011;3015;51.390;12.256;2023-02-20T04:41:00;12.30;;;8.63;;
5977;SDS011;3015;51.390;12.256;2023-02-20T04:43:26;9.03;;;7.20;;
5977;SDS011;3015;51.390;12.256;2023-02-20T04:45:51;9.20;;;7.13;;
5977;SDS011;3015;51.390;12.256;2023-02-20T04:48:17;8.90;;;7.03;;
5977;SDS011;3015;51.390;12.256;2023-02-20T04:50:42;8.07;;;6.50;;
5977;SDS011;3015;51.390;12.256;2023-02-20T04:53:08;9.87;;;6.93;;
5977;SDS011;3015;51.390;12.256;2023-02-20T04:55:33;7.87;;;6.93;;
5977;SDS011;3015;51.390;12.256;2023-02-20T04:57:59;7.83;;;6.67;;
5977;SDS011;3015;51.390;12.256;2023-02-20T05:00:25;8.93;;;7.47;;
5977;SDS011;3015;51.390;12.256;2023-02-20T05:02:51;8.93;;;6.90;;
5977;SDS011;3015;51.390;12.256;2023-02-20T05:07:56;8.30;;;7.40;;
5977;SDS011;3015;51.390;12.256;2023-02-20T05:10:24;9.30;;;6.70;;
5977;SDS011;3015;51.390;12.256;2023-02-20T05:12:50;8.77;;;7.32;;
5977;SDS011;3015;51.390;12.256;2023-02-20T05:15:16;8.57;;;7.07;;
5977;SDS011;3015;51.390;12.256;2023-02-20T05:17:42;7.38;;;6.55;;
5977;SDS011;3015;51.390;12.256;2023-02-20T05:20:08;8.17;;;6.97;;
5977;SDS011;3015;51.390;12.256;2023-02-20T05:22:34;8.13;;;6.10;;
5977;SDS011;3015;51.390;12.256;2023-02-20T05:25:00;10.77;;;7.53;;
5977;SDS011;3015;51.390;12.256;2023-02-20T05:27:26;9.60;;;7.50;;
5977;SDS011;3015;51.390;12.256;2023-02-20T05:29:53;9.80;;;7.97;;
5977;SDS011;3015;51.390;12.256;2023-02-20T05:32:21;12.57;;;8.18;;
5977;SDS011;3015;51.390;12.256;2023-02-20T05:34:48;7.68;;;6.78;;
5977;SDS011;3015;51.390;12.256;2023-02-20T05:37:15;9.70;;;7.53;;
5977;SDS011;3015;51.390;12.256;2023-02-20T05:39:42;8.13;;;7.13;;
5977;SDS011;3015;51.390;12.256;2023-02-20T05:42:09;8.43;;;7.07;;
5977;SDS011;3015;51.390;12.256;2023-02-20T05:44:35;8.33;;;6.87;;
5977;SDS011;3015;51.390;12.256;2023-02-20T05:47:01;8.43;;;7.43;;
5977;SDS011;3015;51.390;12.256;2023-02-20T05:49:27;8.83;;;6.57;;
5977;SDS011;3015;51.390;12.256;2023-02-20T05:51:54;10.13;;;6.60;;
5977;SDS011;3015;51.390;12.256;2023-02-20T05:54:21;8.18;;;6.25;;
5977;SDS011;3015;51.390;12.256;2023-02-20T05:56:47;7.77;;;6.23;;
5977;SDS011;3015;51.390;12.256;2023-02-20T05:59:15;7.00;;;6.07;;
5977;SDS011;3015;51.390;12.256;2023-02-20T06:01:42;6.47;;;5.88;;
5977;SDS011;3015;51.390;12.256;2023-02-20T06:04:08;6.87;;;5.93;;
5977;SDS011;3015;51.390;12.256;2023-02-20T06:06:38;6.43;;;4.97;;
5977;SDS011;3015;51.390;12.256;2023-02-20T06:09:05;6.55;;;5.78;;
5977;SDS011;3015;51.390;12.256;2023-02-20T06:11:34;9.70;;;5.53;;
5977;SDS011;3015;51.390;12.256;2023-02-20T06:14:01;6.80;;;5.13;;
5977;SDS011;3015;51.390;12.256;2023-02-20T06:16:28;6.40;;;5.80;;
5977;SDS011;3015;51.390;12.256;2023-02-20T06:18:55;6.38;;;5.70;;
5977;SDS011;3015;51.390;12.256;2023-02-20T06:21:22;6.43;;;5.78;;
5977;SDS011;3015;51.390;12.256;2023-02-20T06:23:48;7.05;;;5.97;;
5977;SDS011;3015;51.390;12.256;2023-02-20T06:26:15;8.80;;;6.60;;
5977;SDS011;3015;51.390;12.256;2023-02-20T06:28:42;10.05;;;7.15;;
5977;SDS011;3015;51.390;12.256;2023-02-20T06:31:08;6.77;;;6.03;;
5977;SDS011;3015;51.390;12.256;2023-02-20T06:33:34;7.70;;;6.15;;
5977;SDS011;3015;51.390;12.256;2023-02-20T06:36:00;6.87;;;6.00;;
5977;SDS011;3015;51.390;12.256;2023-02-20T06:38:26;7.10;;;5.67;;
5977;SDS011;3015;51.390;12.256;2023-02-20T06:40:52;7.82;;;7.00;;
5977;SDS011;3015;51.390;12.256;2023-02-20T06:43:18;8.90;;;6.57;;
5977;SDS011;3015;51.390;12.256;2023-02-20T06:45:44;6.95;;;6.25;;
5977;SDS011;3015;51.390;12.256;2023-02-20T06:48:10;8.20;;;6.45;;
5977;SDS011;3015;51.390;12.256;2023-02-20T06:50:38;8.38;;;6.75;;
5977;SDS011;3015;51.390;12.256;2023-02-20T06:53:04;8.80;;;7.32;;
5977;SDS011;3015;51.390;12.256;2023-02-20T06:55:30;6.80;;;6.10;;
5977;SDS011;3015;51.390;12.256;2023-02-20T06:57:56;8.73;;;6.78;;
5977;SDS011;3015;51.390;12.256;2023-02-20T07:00:22;6.07;;;5.47;;
5977;SDS011;3015;51.390;12.256;2023-02-20T07:02:48;7.85;;;6.70;;
5977;SDS011;3015;51.390;12.256;2023-02-20T07:05:14;10.00;;;6.80;;
5977;SDS011;3015;51.390;12.256;2023-02-20T07:07:39;7.53;;;6.70;;
5977;SDS011;3015;51.390;12.256;2023-02-20T07:10:05;7.97;;;6.77;;
5977;SDS011;3015;51.390;12.256;2023-02-20T07:12:31;8.32;;;7.53;;
5977;SDS011;3015;51.390;12.256;2023-02-20T07:14:58;10.60;;;6.67;;
5977;SDS011;3015;51.390;12.256;2023-02-20T07:17:23;10.43;;;8.05;;
5977;SDS011;3015;51.390;12.256;2023-02-20T07:19:49;8.27;;;6.90;;
5977;SDS011;3015;51.390;12.256;2023-02-20T07:22:15;8.98;;;7.85;;
5977;SDS011;3015;51.390;12.256;2023-02-20T07:24:41;8.03;;;7.20;;
5977;SDS011;3015;51.390;12.256;2023-02-20T07:27:07;11.70;;;8.50;;
5977;SDS011;3015;51.390;12.256;2023-02-20T07:29:35;9.80;;;7.93;;
5977;SDS011;3015;51.390;12.256;2023-02-20T07:32:01;12.27;;;9.27;;
5977;SDS011;3015;51.390;12.256;2023-02-20T07:34:27;8.77;;;7.95;;
5977;SDS011;3015;51.390;12.256;2023-02-20T07:36:53;10.70;;;7.67;;
5977;SDS011;3015;51.390;12.256;2023-02-20T07:39:18;8.93;;;7.80;;
5977;SDS011;3015;51.390;12.256;2023-02-20T07:41:44;16.33;;;9.40;;
5977;SDS011;3015;51.390;12.256;2023-02-20T07:44:10;11.43;;;9.00;;
5977;SDS011;3015;51.390;12.256;2023-02-20T07:46:38;9.80;;;8.80;;
5977;SDS011;3015;51.390;12.256;2023-02-20T07:49:04;9.50;;;7.97;;
5977;SDS011;3015;51.390;12.256;2023-02-20T07:51:30;11.50;;;7.93;;
5977;SDS011;3015;51.390;12.256;2023-02-20T07:53:56;7.40;;;6.60;;
5977;SDS011;3015;51.390;12.256;2023-02-20T07:56:22;12.80;;;8.73;;
5977;SDS011;3015;51.390;12.256;2023-02-20T07:58:48;9.95;;;8.65;;
5977;SDS011;3015;51.390;12.256;2023-02-20T08:01:14;8.30;;;7.30;;
5977;SDS011;3015;51.390;12.256;2023-02-20T08:03:40;9.68;;;8.63;;
5977;SDS011;3015;51.390;12.256;2023-02-20T08:06:06;10.27;;;7.43;;
5977;SDS011;3015;51.390;12.256;2023-02-20T08:08:32;7.80;;;6.90;;
5977;SDS011;3015;51.390;12.256;2023-02-20T08:10:57;9.77;;;8.77;;
5977;SDS011;3015;51.390;12.256;2023-02-20T08:13:24;9.05;;;8.18;;
5977;SDS011;3015;51.390;12.256;2023-02-20T08:15:50;10.35;;;7.35;;
5977;SDS011;3015;51.390;12.256;2023-02-20T08:18:16;9.60;;;6.90;;
5977;SDS011;3015;51.390;12.256;2023-02-20T08:20:42;7.20;;;6.50;;
5977;SDS011;3015;51.390;12.256;2023-02-20T08:23:21;6.82;;;6.25;;
5977;SDS011;3015;51.390;12.256;2023-02-20T08:25:48;7.60;;;6.90;;
5977;SDS011;3015;51.390;12.256;2023-02-20T08:28:14;9.80;;;6.88;;
5977;SDS011;3015;51.390;12.256;2023-02-20T08:30:40;6.87;;;6.17;;
5977;SDS011;3015;51.390;12.256;2023-02-20T08:33:06;6.53;;;5.90;;
5977;SDS011;3015;51.390;12.256;2023-02-20T08:35:32;9.53;;;7.00;;
5977;SDS011;3015;51.390;12.256;2023-02-20T08:38:01;6.45;;;5.85;;
5977;SDS011;3015;51.390;12.256;2023-02-20T08:40:27;7.57;;;6.30;;
5977;SDS011;3015;51.390;12.256;2023-02-20T08:42:53;7.63;;;6.60;;
5977;SDS011;3015;51.390;12.256;2023-02-20T08:45:19;6.80;;;6.10;;
5977;SDS011;3015;51.390;12.256;2023-02-20T08:47:45;6.77;;;6.23;;
5977;SDS011;3015;51.390;12.256;2023-02-20T08:50:12;7.15;;;6.20;;
5977;SDS011;3015;51.390;12.256;2023-02-20T08:52:43;7.20;;;6.50;;
5977;SDS011;3015;51.390;12.256;2023-02-20T08:55:10;9.55;;;5.15;;
5977;SDS011;3015;51.390;12.256;2023-02-20T08:57:36;10.18;;;6.20;;
5977;SDS011;3015;51.390;12.256;2023-02-20T09:00:05;6.80;;;5.77;;
5977;SDS011;3015;51.390;12.256;2023-02-20T09:02:31;5.63;;;5.07;;
5977;SDS011;3015;51.390;12.256;2023-02-20T09:04:56;6.03;;;5.43;;
5977;SDS011;3015;51.390;12.256;2023-02-20T09:07:22;5.83;;;5.23;;
5977;SDS011;3015;51.390;12.256;2023-02-20T09:09:48;6.88;;;6.18;;
5977;SDS011;3015;51.390;12.256;2023-02-20T09:12:17;6.28;;;5.72;;
5977;SDS011;3015;51.390;12.256;2023-02-20T09:14:43;5.13;;;4.40;;
5977;SDS011;3015;51.390;12.256;2023-02-20T09:17:09;5.50;;;4.87;;
5977;SDS011;3015;51.390;12.256;2023-02-20T09:19:34;6.30;;;5.70;;
5977;SDS011;3015;51.390;12.256;2023-02-20T09:22:00;6.00;;;5.50;;
5977;SDS011;3015;51.390;12.256;2023-02-20T09:24:26;6.45;;;4.57;;
5977;SDS011;3015;51.390;12.256;2023-02-20T09:26:56;6.68;;;4.40;;
5977;SDS011;3015;51.390;12.256;2023-02-20T09:29:22;6.00;;;4.63;;
5977;SDS011;3015;51.390;12.256;2023-02-20T09:31:47;5.60;;;4.70;;
5977;SDS011;3015;51.390;12.256;2023-02-20T09:34:13;4.40;;;4.00;;
5977;SDS011;3015;51.390;12.256;2023-02-20T09:36:38;5.10;;;4.60;;
5977;SDS011;3015;51.390;12.256;2023-02-20T09:39:04;5.17;;;4.67;;
5977;SDS011;3015;51.390;12.256;2023-02-20T09:46:41;4.93;;;4.45;;
5977;SDS011;3015;51.390;12.256;2023-02-20T09:49:13;3.90;;;3.58;;
5977;SDS011;3015;51.390;12.256;2023-02-20T09:51:43;4.47;;;4.07;;
5977;SDS011;3015;51.390;12.256;2023-02-20T09:57:14;3.88;;;3.58;;
5977;SDS011;3015;51.390;12.256;2023-02-20T09:59:45;4.50;;;4.10;;
5977;SDS011;3015;51.390;12.256;2023-02-20T10:02:34;3.92;;;3.65;;
5977;SDS011;3015;51.390;12.256;2023-02-20T10:05:06;4.20;;;3.80;;
5977;SDS011;3015;51.390;12.256;2023-02-20T10:07:44;5.20;;;3.60;;
5977;SDS011;3015;51.390;12.256;2023-02-20T10:10:18;3.67;;;3.38;;
5977;SDS011;3015;51.390;12.256;2023-02-20T10:18:24;4.22;;;3.90;;
5977;SDS011;3015;51.390;12.256;2023-02-20T10:21:15;8.07;;;4.03;;
5977;SDS011;3015;51.390;12.256;2023-02-20T10:23:57;3.60;;;3.35;;
5977;SDS011;3015;51.390;12.256;2023-02-20T10:26:48;3.67;;;3.40;;
5977;SDS011;3015;51.390;12.256;2023-02-20T10:29:23;3.88;;;3.47;;
5977;SDS011;3015;51.390;12.256;2023-02-20T10:32:02;3.70;;;3.40;;
5977;SDS011;3015;51.390;12.256;2023-02-20T10:34:44;3.90;;;3.60;;
5977;SDS011;3015;51.390;12.256;2023-02-20T10:37:33;3.65;;;3.25;;
5977;SDS011;3015;51.390;12.256;2023-02-20T10:40:22;2.80;;;2.60;;
5977;SDS011;3015;51.390;12.256;2023-02-20T10:43:01;4.35;;;3.55;;
5977;SDS011;3015;51.390;12.256;2023-02-20T10:48:11;5.00;;;3.53;;
5977;SDS011;3015;51.390;12.256;2023-02-20T10:56:25;3.33;;;2.83;;
5977;SDS011;3015;51.390;12.256;2023-02-20T10:59:18;2.67;;;2.47;;
5977;SDS011;3015;51.390;12.256;2023-02-20T11:01:53;3.50;;;3.30;;
5977;SDS011;3015;51.390;12.256;2023-02-20T11:04:21;3.17;;;2.97;;
5977;SDS011;3015;51.390;12.256;2023-02-20T11:07:09;3.10;;;2.87;;
5977;SDS011;3015;51.390;12.256;2023-02-20T11:09:39;3.10;;;2.78;;
5977;SDS011;3015;51.390;12.256;2023-02-20T11:12:05;4.20;;;2.92;;
5977;SDS011;3015;51.390;12.256;2023-02-20T11:17:32;3.58;;;2.15;;
5977;SDS011;3015;51.390;12.256;2023-02-20T11:19:52;4.53;;;3.20;;
5977;SDS011;3015;51.390;12.256;2023-02-20T11:27:41;3.13;;;2.92;;
5977;SDS011;3015;51.390;12.256;2023-02-20T11:35:49;2.20;;;2.10;;
5977;SDS011;3015;51.390;12.256;2023-02-20T11:41:07;2.13;;;1.83;;
5977;SDS011;3015;51.390;12.256;2023-02-20T11:43:39;2.67;;;2.50;;
5977;SDS011;3015;51.390;12.256;2023-02-20T11:49:02;2.40;;;2.20;;
5977;SDS011;3015;51.390;12.256;2023-02-20T11:54:12;4.27;;;2.30;;
5977;SDS011;3015;51.390;12.256;2023-02-20T11:56:51;2.10;;;2.00;;
5977;SDS011;3015;51.390;12.256;2023-02-20T11:59:25;2.80;;;2.60;;
5977;SDS011;3015;51.390;12.256;2023-02-20T12:02:03;3.90;;;2.95;;
5977;SDS011;3015;51.390;12.256;2023-02-20T12:04:35;3.17;;;2.30;;
5977;SDS011;3015;51.390;12.256;2023-02-20T12:07:09;2.63;;;2.43;;
5977;SDS011;3015;51.390;12.256;2023-02-20T12:09:47;4.05;;;3.28;;
5977;SDS011;3015;51.390;12.256;2023-02-20T12:12:16;3.97;;;2.90;;
5977;SDS011;3015;51.390;12.256;2023-02-20T12:14:47;2.92;;;2.72;;
5977;SDS011;3015;51.390;12.256;2023-02-20T12:22:33;4.38;;;2.90;;
5977;SDS011;3015;51.390;12.256;2023-02-20T12:27:34;3.63;;;3.33;;
5977;SDS011;3015;51.390;12.256;2023-02-20T12:33:24;2.50;;;2.40;;
5977;SDS011;3015;51.390;12.256;2023-02-20T12:51:37;6.50;;;3.60;;
5977;SDS011;3015;51.390;12.256;2023-02-20T12:57:09;2.53;;;2.33;;
5977;SDS011;3015;51.390;12.256;2023-02-20T12:59:51;3.92;;;2.92;;
5977;SDS011;3015;51.390;12.256;2023-02-20T13:04:59;4.40;;;2.90;;
5977;SDS011;3015;51.390;12.256;2023-02-20T13:10:23;6.22;;;2.90;;
5977;SDS011;3015;51.390;12.256;2023-02-20T13:12:54;2.95;;;2.65;;
5977;SDS011;3015;51.390;12.256;2023-02-20T13:20:52;2.47;;;2.27;;
5977;SDS011;3015;51.390;12.256;2023-02-20T13:25:48;3.07;;;2.87;;
5977;SDS011;3015;51.390;12.256;2023-02-20T13:28:24;3.27;;;2.97;;
5977;SDS011;3015;51.390;12.256;2023-02-20T13:31:05;2.20;;;2.00;;
5977;SDS011;3015;51.390;12.256;2023-02-20T13:33:38;3.07;;;2.87;;
5977;SDS011;3015;51.390;12.256;2023-02-20T13:36:05;2.93;;;2.73;;
5977;SDS011;3015;51.390;12.256;2023-02-20T13:38:39;3.63;;;3.43;;
5977;SDS011;3015;51.390;12.256;2023-02-20T13:41:06;3.13;;;2.30;;
5977;SDS011;3015;51.390;12.256;2023-02-20T13:43:34;2.90;;;2.13;;
5977;SDS011;3015;51.390;12.256;2023-02-20T13:48:38;2.93;;;2.53;;
5977;SDS011;3015;51.390;12.256;2023-02-20T13:53:48;2.67;;;2.47;;
5977;SDS011;3015;51.390;12.256;2023-02-20T13:56:50;3.00;;;2.90;;
5977;SDS011;3015;51.390;12.256;2023-02-20T13:59:23;2.63;;;2.53;;
5977;SDS011;3015;51.390;12.256;2023-02-20T14:04:22;4.53;;;2.90;;
5977;SDS011;3015;51.390;12.256;2023-02-20T14:06:51;3.40;;;2.60;;
5977;SDS011;3015;51.390;12.256;2023-02-20T14:09:20;3.73;;;2.50;;
5977;SDS011;3015;51.390;12.256;2023-02-20T14:11:48;3.00;;;2.80;;
5977;SDS011;3015;51.390;12.256;2023-02-20T14:14:37;3.30;;;2.63;;
5977;SDS011;3015;51.390;12.256;2023-02-20T14:17:13;2.53;;;2.33;;
5977;SDS011;3015;51.390;12.256;2023-02-20T14:19:44;2.97;;;2.43;;
5977;SDS011;3015;51.390;12.256;2023-02-20T14:22:13;2.42;;;2.33;;
5977;SDS011;3015;51.390;12.256;2023-02-20T14:24:59;3.70;;;3.05;;
5977;SDS011;3015;51.390;12.256;2023-02-20T14:27:26;3.63;;;2.40;;
5977;SDS011;3015;51.390;12.256;2023-02-20T14:30:06;2.60;;;2.40;;
5977;SDS011;3015;51.390;12.256;2023-02-20T14:32:36;4.65;;;2.60;;
5977;SDS011;3015;51.390;12.256;2023-02-20T14:40:36;3.85;;;2.20;;
5977;SDS011;3015;51.390;12.256;2023-02-20T14:43:07;2.97;;;2.67;;
5977;SDS011;3015;51.390;12.256;2023-02-20T14:45:44;3.80;;;2.43;;
5977;SDS011;3015;51.390;12.256;2023-02-20T14:48:22;2.73;;;2.53;;
5977;SDS011;3015;51.390;12.256;2023-02-20T14:51:01;2.55;;;2.20;;
5977;SDS011;3015;51.390;12.256;2023-02-20T14:53:55;2.43;;;2.33;;
5977;SDS011;3015;51.390;12.256;2023-02-20T14:56:23;2.70;;;2.50;;
5977;SDS011;3015;51.390;12.256;2023-02-20T14:58:48;2.40;;;2.20;;
5977;SDS011;3015;51.390;12.256;2023-02-20T15:01:15;2.50;;;2.30;;
5977;SDS011;3015;51.390;12.256;2023-02-20T15:03:45;3.20;;;2.60;;
5977;SDS011;3015;51.390;12.256;2023-02-20T15:06:23;5.50;;;1.92;;
5977;SDS011;3015;51.390;12.256;2023-02-20T15:08:54;5.50;;;3.60;;
5977;SDS011;3015;51.390;12.256;2023-02-20T15:11:21;3.47;;;2.85;;
5977;SDS011;3015;51.390;12.256;2023-02-20T15:13:47;2.30;;;2.20;;
5977;SDS011;3015;51.390;12.256;2023-02-20T15:16:14;3.17;;;2.80;;
5977;SDS011;3015;51.390;12.256;2023-02-20T15:18:45;3.63;;;3.10;;
5977;SDS011;3015;51.390;12.256;2023-02-20T15:21:12;3.20;;;2.60;;
5977;SDS011;3015;51.390;12.256;2023-02-20T15:23:43;2.63;;;2.23;;
5977;SDS011;3015;51.390;12.256;2023-02-20T15:26:26;2.72;;;2.53;;
5977;SDS011;3015;51.390;12.256;2023-02-20T15:34:29;2.85;;;2.70;;
5977;SDS011;3015;51.390;12.256;2023-02-20T15:36:58;2.73;;;2.40;;
5977;SDS011;3015;51.390;12.256;2023-02-20T15:39:24;6.10;;;3.07;;
5977;SDS011;3015;51.390;12.256;2023-02-20T15:41:50;3.78;;;2.95;;
5977;SDS011;3015;51.390;12.256;2023-02-20T15:44:17;2.85;;;2.65;;
5977;SDS011;3015;51.390;12.256;2023-02-20T15:46:43;3.67;;;3.40;;
5977;SDS011;3015;51.390;12.256;2023-02-20T15:49:09;3.00;;;2.80;;
5977;SDS011;3015;51.390;12.256;2023-02-20T15:51:37;3.00;;;2.80;;
5977;SDS011;3015;51.390;12.256;2023-02-20T15:54:06;2.80;;;2.70;;
5977;SDS011;3015;51.390;12.256;2023-02-20T15:56:39;3.40;;;3.08;;
5977;SDS011;3015;51.390;12.256;2023-02-20T15:59:08;3.30;;;3.10;;
5977;SDS011;3015;51.390;12.256;2023-02-20T16:01:35;4.80;;;3.45;;
5977;SDS011;3015;51.390;12.256;2023-02-20T16:04:01;3.57;;;2.70;;
5977;SDS011;3015;51.390;12.256;2023-02-20T16:06:27;3.30;;;2.83;;
5977;SDS011;3015;51.390;12.256;2023-02-20T16:08:53;3.30;;;2.90;;
5977;SDS011;3015;51.390;12.256;2023-02-20T16:11:20;3.00;;;2.80;;
5977;SDS011;3015;51.390;12.256;2023-02-20T16:13:51;3.55;;;3.10;;
5977;SDS011;3015;51.390;12.256;2023-02-20T16:16:22;2.80;;;2.53;;
5977;SDS011;3015;51.390;12.256;2023-02-20T16:18:59;2.83;;;2.60;;
5977;SDS011;3015;51.390;12.256;2023-02-20T16:21:25;3.28;;;3.08;;
5977;SDS011;3015;51.390;12.256;2023-02-20T16:23:51;3.00;;;2.90;;
5977;SDS011;3015;51.390;12.256;2023-02-20T16:26:17;4.25;;;3.25;;
5977;SDS011;3015;51.390;12.256;2023-02-20T16:28:54;3.22;;;3.03;;
5977;SDS011;3015;51.390;12.256;2023-02-20T16:31:24;5.35;;;4.40;;
5977;SDS011;3015;51.390;12.256;2023-02-20T16:34:33;5.70;;;5.10;;
5977;SDS011;3015;51.390;12.256;2023-02-20T16:36:59;6.95;;;6.32;;
5977;SDS011;3015;51.390;12.256;2023-02-20T16:39:25;6.13;;;5.53;;
5977;SDS011;3015;51.390;12.256;2023-02-20T16:41:51;5.93;;;5.40;;
5977;SDS011;3015;51.390;12.256;2023-02-20T16:44:33;8.23;;;6.80;;
5977;SDS011;3015;51.390;12.256;2023-02-20T16:47:13;7.80;;;6.47;;
5977;SDS011;3015;51.390;12.256;2023-02-20T16:49:41;5.90;;;5.47;;
5977;SDS011;3015;51.390;12.256;2023-02-20T16:52:14;6.33;;;5.73;;
5977;SDS011;3015;51.390;12.256;2023-02-20T16:54:47;5.03;;;4.50;;
5977;SDS011;3015;51.390;12.256;2023-02-20T16:57:13;6.65;;;6.05;;
5977;SDS011;3015;51.390;12.256;2023-02-20T16:59:40;8.90;;;5.28;;
5977;SDS011;3015;51.390;12.256;2023-02-20T17:02:05;3.57;;;3.37;;
5977;SDS011;3015;51.390;12.256;2023-02-20T17:04:31;3.27;;;3.07;;
5977;SDS011;3015;51.390;12.256;2023-02-20T17:06:57;4.03;;;3.20;;
5977;SDS011;3015;51.390;12.256;2023-02-20T17:09:23;3.60;;;3.30;;
5977;SDS011;3015;51.390;12.256;2023-02-20T17:11:49;2.97;;;2.77;;
5977;SDS011;3015;51.390;12.256;2023-02-20T17:14:14;3.67;;;3.37;;
5977;SDS011;3015;51.390;12.256;2023-02-20T17:16:40;2.83;;;2.63;;
5977;SDS011;3015;51.390;12.256;2023-02-20T17:19:10;3.72;;;3.42;;
5977;SDS011;3015;51.390;12.256;2023-02-20T17:21:36;4.43;;;3.70;;
5977;SDS011;3015;51.390;12.256;2023-02-20T17:24:02;3.50;;;3.10;;
5977;SDS011;3015;51.390;12.256;2023-02-20T17:26:27;4.07;;;3.77;;
5977;SDS011;3015;51.390;12.256;2023-02-20T17:28:54;3.78;;;3.50;;
5977;SDS011;3015;51.390;12.256;2023-02-20T17:31:19;3.57;;;3.10;;
5977;SDS011;3015;51.390;12.256;2023-02-20T17:33:46;3.60;;;3.30;;
5977;SDS011;3015;51.390;12.256;2023-02-20T17:36:12;3.57;;;3.20;;